Pinheiros, Brazil
Current Conditions -  °F | °C
As of 4:00 PM on Thursday 30 Oct 2014 (Local Time) from SBVT Reporting Station
Light Rain Light Rain  
Wind Chill: 73°   Ceiling: 8000
Heat Index: 73°   Visibility: 6mi
Dew Point: 68°   Wind: 15mph
Humidity: 83%   Direction: 40°NE
Pressure: 29.94"   Gusts: NA
Location:  18.37°S, 40.21°W
Report Text: SBVT 301800Z 04013KT 9000 4000S -RA SCT010 SCT025 BKN080 23/20 Q1014
Loading
Personal Weather Stations






























Interactive Weather Map
Tropical Storm Tracking
New forecast layout! Learn more

10-Day Weather Forecast

Advertisements
Track Severe Weather on mobile